sensor_id;sensor_type;location;lat;lon;timestamp;pressure;altitude;pressure_sealevel;temperature;humidity
77793;BME280;66983;51.438;5.438;2023-03-01T00:01:33;102974.94;;;1.31;58.17
77793;BME280;66983;51.438;5.438;2023-03-01T00:03:59;102984.47;;;1.28;58.34
77793;BME280;66983;51.438;5.438;2023-03-01T00:06:26;102981.78;;;1.26;58.37
77793;BME280;66983;51.438;5.438;2023-03-01T00:08:53;102988.63;;;1.21;58.42
77793;BME280;66983;51.438;5.438;2023-03-01T00:11:19;102984.25;;;1.22;58.36
77793;BME280;66983;51.438;5.438;2023-03-01T00:13:47;102982.38;;;1.18;58.67
77793;BME280;66983;51.438;5.438;2023-03-01T00:16:18;102985.16;;;1.22;58.82
77793;BME280;66983;51.438;5.438;2023-03-01T00:18:45;102987.72;;;1.21;58.93
77793;BME280;66983;51.438;5.438;2023-03-01T00:21:11;102984.25;;;1.22;58.97
77793;BME280;66983;51.438;5.438;2023-03-01T00:23:37;102980.75;;;1.21;58.98
77793;BME280;66983;51.438;5.438;2023-03-01T00:26:07;102979.00;;;1.22;58.61
77793;BME280;66983;51.438;5.438;2023-03-01T00:28:33;102982.53;;;1.22;58.31
77793;BME280;66983;51.438;5.438;2023-03-01T00:31:10;102971.97;;;1.21;58.82
77793;BME280;66983;51.438;5.438;2023-03-01T00:33:36;102974.59;;;1.21;58.54
77793;BME280;66983;51.438;5.438;2023-03-01T00:36:02;102979.00;;;1.22;58.72
77793;BME280;66983;51.438;5.438;2023-03-01T00:38:28;102981.59;;;1.20;58.78
77793;BME280;66983;51.438;5.438;2023-03-01T00:40:54;102973.66;;;1.19;59.18
77793;BME280;66983;51.438;5.438;2023-03-01T00:43:21;102977.13;;;1.18;59.30
77793;BME280;66983;51.438;5.438;2023-03-01T00:45:46;102985.00;;;1.18;58.77
77793;BME280;66983;51.438;5.438;2023-03-01T00:48:12;102975.22;;;1.14;59.13
77793;BME280;66983;51.438;5.438;2023-03-01T00:50:37;102979.47;;;1.10;59.56
77793;BME280;66983;51.438;5.438;2023-03-01T00:53:03;102969.75;;;1.08;59.32
77793;BME280;66983;51.438;5.438;2023-03-01T00:55:30;102968.81;;;1.06;59.60
77793;BME280;66983;51.438;5.438;2023-03-01T00:57:56;102970.53;;;1.05;60.08
77793;BME280;66983;51.438;5.438;2023-03-01T01:00:21;102961.69;;;1.01;59.93
77793;BME280;66983;51.438;5.438;2023-03-01T01:02:48;102955.28;;;0.93;59.63
77793;BME280;66983;51.438;5.438;2023-03-01T01:05:14;102952.75;;;0.96;59.74
77793;BME280;66983;51.438;5.438;2023-03-01T01:07:40;102947.50;;;0.96;60.62
77793;BME280;66983;51.438;5.438;2023-03-01T01:10:06;102952.72;;;0.95;60.04
77793;BME280;66983;51.438;5.438;2023-03-01T01:12:32;102957.84;;;0.92;60.42
77793;BME280;66983;51.438;5.438;2023-03-01T01:14:58;102944.66;;;0.90;59.77
77793;BME280;66983;51.438;5.438;2023-03-01T01:17:23;102944.66;;;0.90;60.24
77793;BME280;66983;51.438;5.438;2023-03-01T01:19:49;102946.44;;;0.91;59.84
77793;BME280;66983;51.438;5.438;2023-03-01T01:22:14;102947.13;;;0.86;60.26
77793;BME280;66983;51.438;5.438;2023-03-01T01:24:40;102944.41;;;0.83;60.33
77793;BME280;66983;51.438;5.438;2023-03-01T01:27:06;102936.41;;;0.80;60.77
77793;BME280;66983;51.438;5.438;2023-03-01T01:29:32;102925.72;;;0.74;60.86
77793;BME280;66983;51.438;5.438;2023-03-01T01:31:58;102934.44;;;0.73;60.49
77793;BME280;66983;51.438;5.438;2023-03-01T01:34:24;102925.50;;;0.67;60.74
77793;BME280;66983;51.438;5.438;2023-03-01T01:36:53;102918.41;;;0.65;60.73
77793;BME280;66983;51.438;5.438;2023-03-01T01:39:20;102908.88;;;0.67;60.80
77793;BME280;66983;51.438;5.438;2023-03-01T01:41:46;102907.09;;;0.66;61.12
77793;BME280;66983;51.438;5.438;2023-03-01T01:46:52;102905.28;;;0.65;61.08
77793;BME280;66983;51.438;5.438;2023-03-01T01:49:27;102904.47;;;0.66;60.63
77793;BME280;66983;51.438;5.438;2023-03-01T01:54:53;102903.44;;;0.62;61.14
77793;BME280;66983;51.438;5.438;2023-03-01T01:57:36;102896.38;;;0.60;61.20
77793;BME280;66983;51.438;5.438;2023-03-01T02:00:13;102906.97;;;0.63;61.61
77793;BME280;66983;51.438;5.438;2023-03-01T02:02:40;102899.88;;;0.60;61.28
77793;BME280;66983;51.438;5.438;2023-03-01T02:05:24;102897.09;;;0.56;61.79
77793;BME280;66983;51.438;5.438;2023-03-01T02:07:52;102897.84;;;0.52;61.22
77793;BME280;66983;51.438;5.438;2023-03-01T02:10:21;102886.50;;;0.53;61.36
77793;BME280;66983;51.438;5.438;2023-03-01T02:12:47;102886.47;;;0.51;61.05
77793;BME280;66983;51.438;5.438;2023-03-01T02:15:13;102882.91;;;0.49;60.87
77793;BME280;66983;51.438;5.438;2023-03-01T02:17:39;102874.09;;;0.47;62.14
77793;BME280;66983;51.438;5.438;2023-03-01T02:22:57;102870.50;;;0.45;62.64
77793;BME280;66983;51.438;5.438;2023-03-01T02:25:37;102868.72;;;0.44;62.11
77793;BME280;66983;51.438;5.438;2023-03-01T02:30:47;102866.94;;;0.43;61.77
77793;BME280;66983;51.438;5.438;2023-03-01T02:33:34;102867.72;;;0.41;62.02
77793;BME280;66983;51.438;5.438;2023-03-01T02:36:08;102872.13;;;0.42;61.82
77793;BME280;66983;51.438;5.438;2023-03-01T02:38:34;102868.66;;;0.43;61.76
77793;BME280;66983;51.438;5.438;2023-03-01T02:41:03;102874.63;;;0.39;61.49
77793;BME280;66983;51.438;5.438;2023-03-01T02:43:32;102882.34;;;0.34;63.15
77793;BME280;66983;51.438;5.438;2023-03-01T02:46:04;102872.63;;;0.31;61.95
77793;BME280;66983;51.438;5.438;2023-03-01T02:48:40;102880.38;;;0.28;62.72
77793;BME280;66983;51.438;5.438;2023-03-01T02:54:25;102892.75;;;0.32;62.45
77793;BME280;66983;51.438;5.438;2023-03-01T02:56:55;102879.53;;;0.29;62.25
77793;BME280;66983;51.438;5.438;2023-03-01T02:59:26;102881.31;;;0.30;62.25
77793;BME280;66983;51.438;5.438;2023-03-01T03:01:54;102879.44;;;0.26;63.08
77793;BME280;66983;51.438;5.438;2023-03-01T03:04:20;102875.00;;;0.24;62.88
77793;BME280;66983;51.438;5.438;2023-03-01T03:06:50;102873.31;;;0.26;62.59
77793;BME280;66983;51.438;5.438;2023-03-01T03:09:17;102875.06;;;0.25;63.19
77793;BME280;66983;51.438;5.438;2023-03-01T03:11:44;102874.09;;;0.23;63.22
77793;BME280;66983;51.438;5.438;2023-03-01T03:14:11;102869.81;;;0.25;63.19
77793;BME280;66983;51.438;5.438;2023-03-01T03:16:44;102877.50;;;0.21;63.69
77793;BME280;66983;51.438;5.438;2023-03-01T03:19:10;102866.13;;;0.20;63.29
77793;BME280;66983;51.438;5.438;2023-03-01T03:21:36;102862.63;;;0.20;63.59
77793;BME280;66983;51.438;5.438;2023-03-01T03:24:02;102871.19;;;0.16;62.75
77793;BME280;66983;51.438;5.438;2023-03-01T03:26:28;102873.75;;;0.14;62.97
77793;BME280;66983;51.438;5.438;2023-03-01T03:28:54;102874.47;;;0.10;62.45
77793;BME280;66983;51.438;5.438;2023-03-01T03:31:20;102875.44;;;0.12;63.28
77793;BME280;66983;51.438;5.438;2023-03-01T03:33:46;102877.09;;;0.10;63.70
77793;BME280;66983;51.438;5.438;2023-03-01T03:36:21;102871.84;;;0.10;63.22
77793;BME280;66983;51.438;5.438;2023-03-01T03:38:47;102857.56;;;0.02;63.37
77793;BME280;66983;51.438;5.438;2023-03-01T03:41:14;102864.53;;;0.00;63.30
77793;BME280;66983;51.438;5.438;2023-03-01T03:43:41;102867.16;;;0.02;63.63
77793;BME280;66983;51.438;5.438;2023-03-01T03:46:10;102866.25;;;-0.01;64.48
77793;BME280;66983;51.438;5.438;2023-03-01T03:48:38;102862.72;;;-0.01;64.23
77793;BME280;66983;51.438;5.438;2023-03-01T03:51:04;102858.22;;;-0.05;63.89
77793;BME280;66983;51.438;5.438;2023-03-01T03:53:33;102863.44;;;-0.05;63.80
77793;BME280;66983;51.438;5.438;2023-03-01T03:55:59;102865.19;;;-0.06;64.45
77793;BME280;66983;51.438;5.438;2023-03-01T03:58:25;102862.50;;;-0.07;64.24
77793;BME280;66983;51.438;5.438;2023-03-01T04:00:53;102865.13;;;-0.07;64.17
77793;BME280;66983;51.438;5.438;2023-03-01T04:03:22;102858.81;;;-0.12;64.11
77793;BME280;66983;51.438;5.438;2023-03-01T04:05:49;102847.25;;;-0.17;64.22
77793;BME280;66983;51.438;5.438;2023-03-01T04:08:17;102855.25;;;-0.14;64.46
77793;BME280;66983;51.438;5.438;2023-03-01T04:10:47;102857.69;;;-0.19;64.78
77793;BME280;66983;51.438;5.438;2023-03-01T04:13:19;102848.94;;;-0.19;64.81
77793;BME280;66983;51.438;5.438;2023-03-01T04:15:47;102836.59;;;-0.22;64.21
77793;BME280;66983;51.438;5.438;2023-03-01T04:18:14;102843.50;;;-0.24;64.73
77793;BME280;66983;51.438;5.438;2023-03-01T04:20:42;102845.22;;;-0.24;64.52
77793;BME280;66983;51.438;5.438;2023-03-01T04:23:20;102841.69;;;-0.26;65.63
77793;BME280;66983;51.438;5.438;2023-03-01T04:28:33;102834.50;;;-0.32;65.14
77793;BME280;66983;51.438;5.438;2023-03-01T04:31:07;102837.06;;;-0.33;65.05
77793;BME280;66983;51.438;5.438;2023-03-01T04:33:42;102833.47;;;-0.36;65.63
77793;BME280;66983;51.438;5.438;2023-03-01T04:36:09;102843.00;;;-0.38;65.19
77793;BME280;66983;51.438;5.438;2023-03-01T04:38:37;102830.75;;;-0.39;66.38
77793;BME280;66983;51.438;5.438;2023-03-01T04:41:07;102827.94;;;-0.43;65.39
77793;BME280;66983;51.438;5.438;2023-03-01T04:43:33;102835.97;;;-0.39;65.69
77793;BME280;66983;51.438;5.438;2023-03-01T04:46:01;102822.88;;;-0.39;65.44
77793;BME280;66983;51.438;5.438;2023-03-01T04:48:28;102815.09;;;-0.37;65.85
77793;BME280;66983;51.438;5.438;2023-03-01T04:50:54;102813.31;;;-0.38;65.88
77793;BME280;66983;51.438;5.438;2023-03-01T04:53:20;102812.41;;;-0.39;65.85
77793;BME280;66983;51.438;5.438;2023-03-01T04:55:45;102808.97;;;-0.38;65.51
77793;BME280;66983;51.438;5.438;2023-03-01T04:58:11;102803.59;;;-0.41;65.25
77793;BME280;66983;51.438;5.438;2023-03-01T05:00:37;102815.75;;;-0.43;65.63
77793;BME280;66983;51.438;5.438;2023-03-01T05:03:02;102804.38;;;-0.43;65.51
77793;BME280;66983;51.438;5.438;2023-03-01T05:05:32;102818.94;;;-0.50;65.95
77793;BME280;66983;51.438;5.438;2023-03-01T05:08:01;102819.00;;;-0.48;65.71
77793;BME280;66983;51.438;5.438;2023-03-01T05:10:29;102824.19;;;-0.50;66.18
77793;BME280;66983;51.438;5.438;2023-03-01T05:12:55;102831.16;;;-0.50;66.10
77793;BME280;66983;51.438;5.438;2023-03-01T05:15:23;102824.19;;;-0.50;66.16
77793;BME280;66983;51.438;5.438;2023-03-01T05:17:54;102817.22;;;-0.49;65.66
77793;BME280;66983;51.438;5.438;2023-03-01T05:20:20;102818.13;;;-0.49;65.78
77793;BME280;66983;51.438;5.438;2023-03-01T05:22:49;102813.00;;;-0.46;65.60
77793;BME280;66983;51.438;5.438;2023-03-01T05:25:15;102798.00;;;-0.50;65.69
77793;BME280;66983;51.438;5.438;2023-03-01T05:27:40;102802.53;;;-0.46;65.65
77793;BME280;66983;51.438;5.438;2023-03-01T05:30:07;102794.66;;;-0.46;65.44
77793;BME280;66983;51.438;5.438;2023-03-01T05:32:44;102792.81;;;-0.48;65.71
77793;BME280;66983;51.438;5.438;2023-03-01T05:35:14;102780.47;;;-0.52;65.81
77793;BME280;66983;51.438;5.438;2023-03-01T05:37:45;102784.06;;;-0.49;65.86
77793;BME280;66983;51.438;5.438;2023-03-01T05:40:14;102774.63;;;-0.45;65.97
77793;BME280;66983;51.438;5.438;2023-03-01T05:42:55;102771.81;;;-0.50;66.27
77793;BME280;66983;51.438;5.438;2023-03-01T05:45:24;102778.97;;;-0.46;65.88
77793;BME280;66983;51.438;5.438;2023-03-01T05:47:50;102779.91;;;-0.44;65.73
77793;BME280;66983;51.438;5.438;2023-03-01T05:50:22;102779.06;;;-0.43;65.13
77793;BME280;66983;51.438;5.438;2023-03-01T05:52:50;102779.06;;;-0.43;65.11
77793;BME280;66983;51.438;5.438;2023-03-01T05:55:20;102780.75;;;-0.45;65.68
77793;BME280;66983;51.438;5.438;2023-03-01T05:57:47;102783.41;;;-0.43;65.79
77793;BME280;66983;51.438;5.438;2023-03-01T06:00:15;102781.63;;;-0.44;65.96
77793;BME280;66983;51.438;5.438;2023-03-01T06:02:41;102782.53;;;-0.44;65.71
77793;BME280;66983;51.438;5.438;2023-03-01T06:05:09;102774.63;;;-0.45;65.82
77793;BME280;66983;51.438;5.438;2023-03-01T06:07:34;102771.88;;;-0.48;65.45
77793;BME280;66983;51.438;5.438;2023-03-01T06:10:01;102768.47;;;-0.46;65.23
77793;BME280;66983;51.438;5.438;2023-03-01T06:12:31;102767.66;;;-0.45;65.60
77793;BME280;66983;51.438;5.438;2023-03-01T06:14:56;102771.09;;;-0.46;66.24
77793;BME280;66983;51.438;5.438;2023-03-01T06:17:22;102773.66;;;-0.47;65.27
77793;BME280;66983;51.438;5.438;2023-03-01T06:19:47;102779.72;;;-0.48;66.00
77793;BME280;66983;51.438;5.438;2023-03-01T06:22:13;102784.91;;;-0.50;65.68
77793;BME280;66983;51.438;5.438;2023-03-01T06:24:38;102773.41;;;-0.55;66.72
77793;BME280;66983;51.438;5.438;2023-03-01T06:27:04;102773.22;;;-0.59;66.64
77793;BME280;66983;51.438;5.438;2023-03-01T06:29:30;102783.63;;;-0.61;66.71
77793;BME280;66983;51.438;5.438;2023-03-01T06:31:56;102782.81;;;-0.60;66.23
77793;BME280;66983;51.438;5.438;2023-03-01T06:34:21;102787.91;;;-0.63;66.23
77793;BME280;66983;51.438;5.438;2023-03-01T06:36:47;102786.97;;;-0.65;66.96
77793;BME280;66983;51.438;5.438;2023-03-01T06:39:13;102783.63;;;-0.61;66.30
77793;BME280;66983;51.438;5.438;2023-03-01T06:41:39;102782.84;;;-0.58;66.89
77793;BME280;66983;51.438;5.438;2023-03-01T06:44:05;102782.97;;;-0.55;66.37
77793;BME280;66983;51.438;5.438;2023-03-01T06:46:30;102785.53;;;-0.57;66.13
77793;BME280;66983;51.438;5.438;2023-03-01T06:48:56;102787.31;;;-0.56;66.50
77793;BME280;66983;51.438;5.438;2023-03-01T06:51:22;102787.22;;;-0.59;66.51
77793;BME280;66983;51.438;5.438;2023-03-01T06:53:47;102789.06;;;-0.56;66.45
77793;BME280;66983;51.438;5.438;2023-03-01T06:56:13;102776.91;;;-0.54;66.54
77793;BME280;66983;51.438;5.438;2023-03-01T06:58:38;102773.47;;;-0.52;66.29
77793;BME280;66983;51.438;5.438;2023-03-01T07:01:08;102766.44;;;-0.54;66.09
77793;BME280;66983;51.438;5.438;2023-03-01T07:03:34;102771.72;;;-0.53;66.39
77793;BME280;66983;51.438;5.438;2023-03-01T07:05:59;102771.81;;;-0.50;66.05
77793;BME280;66983;51.438;5.438;2023-03-01T07:08:25;102764.97;;;-0.46;66.25
77793;BME280;66983;51.438;5.438;2023-03-01T07:10:58;102762.66;;;-0.39;66.09
77793;BME280;66983;51.438;5.438;2023-03-01T07:13:24;102767.94;;;-0.37;66.33
77793;BME280;66983;51.438;5.438;2023-03-01T07:15:49;102777.63;;;-0.35;66.31
77793;BME280;66983;51.438;5.438;2023-03-01T07:18:15;102788.34;;;-0.28;65.92
77793;BME280;66983;51.438;5.438;2023-03-01T07:20:41;102791.06;;;-0.25;65.85
77793;BME280;66983;51.438;5.438;2023-03-01T07:23:06;102799.16;;;-0.19;65.57
77793;BME280;66983;51.438;5.438;2023-03-01T07:25:32;102795.56;;;-0.21;65.83
77793;BME280;66983;51.438;5.438;2023-03-01T07:27:59;102799.31;;;-0.15;66.51
77793;BME280;66983;51.438;5.438;2023-03-01T07:30:25;102800.28;;;-0.13;66.01
77793;BME280;66983;51.438;5.438;2023-03-01T07:32:54;102789.91;;;-0.10;65.19
77793;BME280;66983;51.438;5.438;2023-03-01T07:35:21;102789.06;;;-0.09;65.17
77793;BME280;66983;51.438;5.438;2023-03-01T07:37:46;102794.53;;;-0.03;65.60
77793;BME280;66983;51.438;5.438;2023-03-01T07:40:13;102792.94;;;0.03;64.77
77793;BME280;66983;51.438;5.438;2023-03-01T07:42:38;102795.72;;;0.07;64.84
77793;BME280;66983;51.438;5.438;2023-03-01T07:45:05;102796.78;;;0.12;64.61
77793;BME280;66983;51.438;5.438;2023-03-01T07:47:32;102799.53;;;0.15;64.71
77793;BME280;66983;51.438;5.438;2023-03-01T07:49:57;102799.69;;;0.20;64.84
77793;BME280;66983;51.438;5.438;2023-03-01T07:52:23;102802.41;;;0.23;64.29
77793;BME280;66983;51.438;5.438;2023-03-01T07:54:49;102788.56;;;0.27;63.84
77793;BME280;66983;51.438;5.438;2023-03-01T07:57:14;102797.59;;;0.35;64.18
77793;BME280;66983;51.438;5.438;2023-03-01T07:59:40;102787.25;;;0.40;64.21
77793;BME280;66983;51.438;5.438;2023-03-01T08:02:06;102787.41;;;0.44;62.92
77793;BME280;66983;51.438;5.438;2023-03-01T08:04:32;102791.03;;;0.48;64.19
77793;BME280;66983;51.438;5.438;2023-03-01T08:06:58;102793.84;;;0.54;63.13
77793;BME280;66983;51.438;5.438;2023-03-01T08:09:24;102795.88;;;0.62;62.44
77793;BME280;66983;51.438;5.438;2023-03-01T08:11:50;102785.56;;;0.67;63.66
77793;BME280;66983;51.438;5.438;2023-03-01T08:14:16;102788.28;;;0.70;62.81
77793;BME280;66983;51.438;5.438;2023-03-01T08:16:41;102792.84;;;0.76;62.34
77793;BME280;66983;51.438;5.438;2023-03-01T08:19:10;102787.72;;;0.80;61.68
77793;BME280;66983;51.438;5.438;2023-03-01T08:21:36;102791.38;;;0.85;62.24
77793;BME280;66983;51.438;5.438;2023-03-01T08:24:04;102788.06;;;0.91;62.02
77793;BME280;66983;51.438;5.438;2023-03-01T08:26:30;102788.13;;;0.92;60.89
77793;BME280;66983;51.438;5.438;2023-03-01T08:28:56;102783.91;;;0.97;62.04
77793;BME280;66983;51.438;5.438;2023-03-01T08:31:39;102789.38;;;1.05;61.52
77793;BME280;66983;51.438;5.438;2023-03-01T08:34:08;102791.31;;;1.11;61.13
77793;BME280;66983;51.438;5.438;2023-03-01T08:36:40;102783.69;;;1.18;61.01
77793;BME280;66983;51.438;5.438;2023-03-01T08:39:08;102782.19;;;1.26;60.43
77793;BME280;66983;51.438;5.438;2023-03-01T08:41:34;102776.31;;;1.35;60.70
77793;BME280;66983;51.438;5.438;2023-03-01T08:44:00;102772.97;;;1.41;60.95
77793;BME280;66983;51.438;5.438;2023-03-01T08:46:36;102770.72;;;1.53;60.66
77793;BME280;66983;51.438;5.438;2023-03-01T08:49:07;102763.13;;;1.63;60.22
77793;BME280;66983;51.438;5.438;2023-03-01T08:51:34;102750.84;;;1.62;59.98
77793;BME280;66983;51.438;5.438;2023-03-01T08:54:21;102766.16;;;1.77;59.94
77793;BME280;66983;51.438;5.438;2023-03-01T08:56:48;102760.16;;;1.83;58.85
77793;BME280;66983;51.438;5.438;2023-03-01T08:59:15;102763.72;;;1.85;58.25
77793;BME280;66983;51.438;5.438;2023-03-01T09:01:41;102751.69;;;1.93;58.13
77793;BME280;66983;51.438;5.438;2023-03-01T09:04:11;102756.28;;;2.00;57.35
77793;BME280;66983;51.438;5.438;2023-03-01T09:06:38;102754.66;;;2.05;57.60
77793;BME280;66983;51.438;5.438;2023-03-01T09:09:05;102757.34;;;2.07;56.91
77793;BME280;66983;51.438;5.438;2023-03-01T09:11:31;102746.03;;;2.11;57.96
77793;BME280;66983;51.438;5.438;2023-03-01T09:13:56;102744.50;;;2.19;57.03
77793;BME280;66983;51.438;5.438;2023-03-01T09:16:23;102736.75;;;2.25;57.59
77793;BME280;66983;51.438;5.438;2023-03-01T09:18:53;102738.75;;;2.33;56.57
77793;BME280;66983;51.438;5.438;2023-03-01T09:21:21;102735.28;;;2.36;56.54
77793;BME280;66983;51.438;5.438;2023-03-01T09:23:48;102743.28;;;2.41;56.36
77793;BME280;66983;51.438;5.438;2023-03-01T09:26:20;102731.09;;;2.44;55.97
77793;BME280;66983;51.438;5.438;2023-03-01T09:28:49;102734.75;;;2.49;55.96
77793;BME280;66983;51.438;5.438;2023-03-01T09:31:17;102729.75;;;2.60;56.15
77793;BME280;66983;51.438;5.438;2023-03-01T09:33:47;102738.81;;;2.72;55.87
77793;BME280;66983;51.438;5.438;2023-03-01T09:36:16;102724.06;;;2.79;55.97
77793;BME280;66983;51.438;5.438;2023-03-01T09:38:41;102720.84;;;2.92;55.54
77793;BME280;66983;51.438;5.438;2023-03-01T09:41:31;102724.69;;;3.06;55.63
77793;BME280;66983;51.438;5.438;2023-03-01T09:44:03;102729.28;;;3.17;54.58
77793;BME280;66983;51.438;5.438;2023-03-01T09:46:43;102711.00;;;3.24;53.91
77793;BME280;66983;51.438;5.438;2023-03-01T09:49:19;102712.03;;;3.31;53.81
77793;BME280;66983;51.438;5.438;2023-03-01T09:52:15;102708.66;;;3.36;52.49
77793;BME280;66983;51.438;5.438;2023-03-01T09:54:45;102704.31;;;3.40;53.10
77793;BME280;66983;51.438;5.438;2023-03-01T10:02:44;102680.19;;;3.65;52.01
77793;BME280;66983;51.438;5.438;2023-03-01T10:05:41;102690.81;;;3.68;50.38
77793;BME280;66983;51.438;5.438;2023-03-01T10:10:57;102675.13;;;3.74;50.64
77793;BME280;66983;51.438;5.438;2023-03-01T10:13:45;102675.19;;;3.79;50.87
77793;BME280;66983;51.438;5.438;2023-03-01T10:16:23;102664.88;;;3.90;50.54
77793;BME280;66983;51.438;5.438;2023-03-01T10:19:04;102664.81;;;3.87;51.16
77793;BME280;66983;51.438;5.438;2023-03-01T10:21:31;102656.13;;;3.94;51.48
77793;BME280;66983;51.438;5.438;2023-03-01T10:24:22;102652.63;;;3.95;51.45
77793;BME280;66983;51.438;5.438;2023-03-01T10:30:10;102630.91;;;4.09;50.63
77793;BME280;66983;51.438;5.438;2023-03-01T10:32:38;102638.13;;;4.21;50.44
77793;BME280;66983;51.438;5.438;2023-03-01T10:35:22;102636.53;;;4.31;49.46
77793;BME280;66983;51.438;5.438;2023-03-01T10:38:11;102641.03;;;4.38;49.64
77793;BME280;66983;51.438;5.438;2023-03-01T10:41:00;102640.97;;;4.33;49.24
77793;BME280;66983;51.438;5.438;2023-03-01T10:43:40;102644.56;;;4.38;49.65
77793;BME280;66983;51.438;5.438;2023-03-01T10:51:31;102645.53;;;4.47;47.82
77793;BME280;66983;51.438;5.438;2023-03-01T10:53:57;102639.50;;;4.54;48.88
77793;BME280;66983;51.438;5.438;2023-03-01T10:56:23;102635.28;;;4.65;48.58
77793;BME280;66983;51.438;5.438;2023-03-01T10:59:05;102635.31;;;4.66;48.58
77793;BME280;66983;51.438;5.438;2023-03-01T11:01:35;102640.59;;;4.66;49.24
77793;BME280;66983;51.438;5.438;2023-03-01T11:06:37;102626.50;;;4.69;47.84
77793;BME280;66983;51.438;5.438;2023-03-01T11:09:19;102632.06;;;4.87;47.91
77793;BME280;66983;51.438;5.438;2023-03-01T11:11:45;102635.66;;;4.94;47.96
77793;BME280;66983;51.438;5.438;2023-03-01T11:14:21;102641.06;;;5.04;48.21
77793;BME280;66983;51.438;5.438;2023-03-01T11:16:58;102635.78;;;5.04;47.77
77793;BME280;66983;51.438;5.438;2023-03-01T11:19:24;102634.88;;;5.02;47.79
77793;BME280;66983;51.438;5.438;2023-03-01T11:22:12;102633.28;;;5.14;48.20
77793;BME280;66983;51.438;5.438;2023-03-01T11:24:45;102630.72;;;5.23;46.66
77793;BME280;66983;51.438;5.438;2023-03-01T11:27:19;102626.31;;;5.19;46.68
77793;BME280;66983;51.438;5.438;2023-03-01T11:29:55;102619.25;;;5.21;45.79
77793;BME280;66983;51.438;5.438;2023-03-01T11:32:27;102624.56;;;5.24;46.88
77793;BME280;66983;51.438;5.438;2023-03-01T11:35:05;102614.91;;;5.27;46.18
77793;BME280;66983;51.438;5.438;2023-03-01T11:40:27;102617.63;;;5.32;45.86
77793;BME280;66983;51.438;5.438;2023-03-01T11:43:11;102606.19;;;5.34;46.20
77793;BME280;66983;51.438;5.438;2023-03-01T11:48:29;102605.31;;;5.34;45.65
77793;BME280;66983;51.438;5.438;2023-03-01T11:51:05;102597.44;;;5.40;46.10
77793;BME280;66983;51.438;5.438;2023-03-01T12:11:13;102582.72;;;5.66;46.06
77793;BME280;66983;51.438;5.438;2023-03-01T12:14:23;102581.84;;;5.67;45.85
77793;BME280;66983;51.438;5.438;2023-03-01T12:17:04;102579.22;;;5.67;46.48
77793;BME280;66983;51.438;5.438;2023-03-01T12:22:32;102566.03;;;5.70;45.35
77793;BME280;66983;51.438;5.438;2023-03-01T12:28:00;102571.31;;;5.73;44.95
77793;BME280;66983;51.438;5.438;2023-03-01T12:30:32;102570.44;;;5.76;45.85
77793;BME280;66983;51.438;5.438;2023-03-01T12:35:58;102555.50;;;5.79;44.93
77793;BME280;66983;51.438;5.438;2023-03-01T12:38:33;102561.81;;;5.91;44.97
77793;BME280;66983;51.438;5.438;2023-03-01T12:49:36;102546.81;;;5.91;45.33
77793;BME280;66983;51.438;5.438;2023-03-01T12:52:28;102537.09;;;5.89;45.26
77793;BME280;66983;51.438;5.438;2023-03-01T12:55:02;102524.81;;;5.97;45.57
77793;BME280;66983;51.438;5.438;2023-03-01T12:57:42;102523.03;;;5.99;44.91
77793;BME280;66983;51.438;5.438;2023-03-01T13:00:56;102526.56;;;5.98;45.60
77793;BME280;66983;51.438;5.438;2023-03-01T13:06:08;102503.66;;;5.97;46.06
77793;BME280;66983;51.438;5.438;2023-03-01T13:08:52;102508.09;;;6.07;44.79
77793;BME280;66983;51.438;5.438;2023-03-01T13:11:23;102507.28;;;6.14;45.02
77793;BME280;66983;51.438;5.438;2023-03-01T13:13:49;102510.78;;;6.11;44.78
77793;BME280;66983;51.438;5.438;2023-03-01T13:21:37;102492.25;;;6.10;44.57
77793;BME280;66983;51.438;5.438;2023-03-01T13:24:03;102482.53;;;6.10;44.02
77793;BME280;66983;51.438;5.438;2023-03-01T13:26:28;102479.06;;;6.16;45.04
77793;BME280;66983;51.438;5.438;2023-03-01T13:28:56;102486.97;;;6.15;44.80
77793;BME280;66983;51.438;5.438;2023-03-01T13:33:58;102472.91;;;6.25;44.86
77793;BME280;66983;51.438;5.438;2023-03-01T13:39:02;102465.94;;;6.42;44.27
77793;BME280;66983;51.438;5.438;2023-03-01T13:49:52;102442.09;;;6.37;41.74
77793;BME280;66983;51.438;5.438;2023-03-01T13:54:50;102432.41;;;6.42;42.93
77793;BME280;66983;51.438;5.438;2023-03-01T13:57:25;102422.69;;;6.43;43.06
77793;BME280;66983;51.438;5.438;2023-03-01T13:59:51;102428.91;;;6.48;42.51
77793;BME280;66983;51.438;5.438;2023-03-01T14:02:17;102433.31;;;6.49;42.91
77793;BME280;66983;51.438;5.438;2023-03-01T14:04:42;102426.25;;;6.46;43.58
77793;BME280;66983;51.438;5.438;2023-03-01T14:07:10;102421.81;;;6.44;44.22
77793;BME280;66983;51.438;5.438;2023-03-01T14:09:41;102420.94;;;6.43;43.77
77793;BME280;66983;51.438;5.438;2023-03-01T14:12:29;102413.00;;;6.46;43.85
77793;BME280;66983;51.438;5.438;2023-03-01T14:15:27;102421.81;;;6.52;43.01
77793;BME280;66983;51.438;5.438;2023-03-01T14:18:08;102413.88;;;6.55;43.45
77793;BME280;66983;51.438;5.438;2023-03-01T14:20:42;102413.91;;;6.59;43.92
77793;BME280;66983;51.438;5.438;2023-03-01T14:23:14;102407.72;;;6.57;43.08
77793;BME280;66983;51.438;5.438;2023-03-01T14:26:07;102395.34;;;6.55;42.62
77793;BME280;66983;51.438;5.438;2023-03-01T14:28:36;102400.63;;;6.50;43.01
77793;BME280;66983;51.438;5.438;2023-03-01T14:31:37;102401.50;;;6.54;43.45
77793;BME280;66983;51.438;5.438;2023-03-01T14:34:04;102406.81;;;6.54;43.95
77793;BME280;66983;51.438;5.438;2023-03-01T14:36:32;102408.59;;;6.61;44.26
77793;BME280;66983;51.438;5.438;2023-03-01T14:38:58;102404.19;;;6.58;43.51
77793;BME280;66983;51.438;5.438;2023-03-01T14:41:33;102398.00;;;6.58;43.79
77793;BME280;66983;51.438;5.438;2023-03-01T14:44:04;102393.59;;;6.57;43.62
77793;BME280;66983;51.438;5.438;2023-03-01T14:46:34;102393.59;;;6.61;43.22
77793;BME280;66983;51.438;5.438;2023-03-01T14:49:23;102387.41;;;6.58;42.96
77793;BME280;66983;51.438;5.438;2023-03-01T14:52:32;102381.25;;;6.65;42.93
77793;BME280;66983;51.438;5.438;2023-03-01T14:55:04;102372.44;;;6.70;43.70